sensor_id;sensor_type;location;lat;lon;timestamp;P1;durP1;ratioP1;P2;durP2;ratioP2
67930;SDS011;63902;52.000;5.954;2023-08-06T00:00:52;8.98;;;5.55;;
67930;SDS011;63902;52.000;5.954;2023-08-06T00:01:52;10.50;;;6.47;;
67930;SDS011;63902;52.000;5.954;2023-08-06T00:02:54;12.15;;;5.50;;
67930;SDS011;63902;52.000;5.954;2023-08-06T00:03:55;10.18;;;6.15;;
67930;SDS011;63902;52.000;5.954;2023-08-06T00:04:55;9.15;;;5.90;;
67930;SDS011;63902;52.000;5.954;2023-08-06T00:05:56;7.97;;;5.60;;
67930;SDS011;63902;52.000;5.954;2023-08-06T00:06:56;9.48;;;5.28;;
67930;SDS011;63902;52.000;5.954;2023-08-06T00:07:57;11.52;;;6.05;;
67930;SDS011;63902;52.000;5.954;2023-08-06T00:08:57;8.05;;;5.93;;
67930;SDS011;63902;52.000;5.954;2023-08-06T00:09:58;8.40;;;5.95;;
67930;SDS011;63902;52.000;5.954;2023-08-06T00:10:58;8.32;;;5.45;;
67930;SDS011;63902;52.000;5.954;2023-08-06T00:11:59;8.10;;;5.10;;
67930;SDS011;63902;52.000;5.954;2023-08-06T00:12:59;10.40;;;6.07;;
67930;SDS011;63902;52.000;5.954;2023-08-06T00:14:00;7.70;;;5.40;;
67930;SDS011;63902;52.000;5.954;2023-08-06T00:15:00;8.65;;;6.05;;
67930;SDS011;63902;52.000;5.954;2023-08-06T00:16:10;10.20;;;5.53;;
67930;SDS011;63902;52.000;5.954;2023-08-06T00:17:11;10.13;;;5.30;;
67930;SDS011;63902;52.000;5.954;2023-08-06T00:18:13;7.75;;;5.50;;
67930;SDS011;63902;52.000;5.954;2023-08-06T00:19:14;10.55;;;5.88;;
67930;SDS011;63902;52.000;5.954;2023-08-06T00:20:14;10.85;;;5.65;;
67930;SDS011;63902;52.000;5.954;2023-08-06T00:21:15;11.30;;;5.57;;
67930;SDS011;63902;52.000;5.954;2023-08-06T00:22:15;9.60;;;5.65;;
67930;SDS011;63902;52.000;5.954;2023-08-06T00:23:16;12.35;;;5.45;;
67930;SDS011;63902;52.000;5.954;2023-08-06T00:24:16;7.03;;;5.13;;
67930;SDS011;63902;52.000;5.954;2023-08-06T00:25:17;9.65;;;5.45;;
67930;SDS011;63902;52.000;5.954;2023-08-06T00:26:18;15.07;;;6.10;;
67930;SDS011;63902;52.000;5.954;2023-08-06T00:27:18;9.65;;;5.57;;
67930;SDS011;63902;52.000;5.954;2023-08-06T00:28:19;7.20;;;5.45;;
67930;SDS011;63902;52.000;5.954;2023-08-06T00:29:19;11.30;;;5.45;;
67930;SDS011;63902;52.000;5.954;2023-08-06T00:30:20;7.00;;;5.25;;
67930;SDS011;63902;52.000;5.954;2023-08-06T00:31:20;10.23;;;5.65;;
67930;SDS011;63902;52.000;5.954;2023-08-06T00:32:21;10.27;;;5.47;;
67930;SDS011;63902;52.000;5.954;2023-08-06T00:33:23;8.43;;;5.22;;
67930;SDS011;63902;52.000;5.954;2023-08-06T00:34:24;8.73;;;5.28;;
67930;SDS011;63902;52.000;5.954;2023-08-06T00:35:25;9.35;;;5.53;;
67930;SDS011;63902;52.000;5.954;2023-08-06T00:36:25;11.10;;;5.30;;
67930;SDS011;63902;52.000;5.954;2023-08-06T00:37:26;14.05;;;5.30;;
67930;SDS011;63902;52.000;5.954;2023-08-06T00:38:26;8.43;;;5.07;;
67930;SDS011;63902;52.000;5.954;2023-08-06T00:39:27;8.13;;;5.13;;
67930;SDS011;63902;52.000;5.954;2023-08-06T00:40:27;7.22;;;5.35;;
67930;SDS011;63902;52.000;5.954;2023-08-06T00:41:28;6.60;;;5.03;;
67930;SDS011;63902;52.000;5.954;2023-08-06T00:42:28;6.95;;;4.90;;
67930;SDS011;63902;52.000;5.954;2023-08-06T00:43:29;10.30;;;5.38;;
67930;SDS011;63902;52.000;5.954;2023-08-06T00:44:29;8.50;;;5.43;;
67930;SDS011;63902;52.000;5.954;2023-08-06T00:45:30;8.27;;;5.32;;
67930;SDS011;63902;52.000;5.954;2023-08-06T00:46:34;10.85;;;5.75;;
67930;SDS011;63902;52.000;5.954;2023-08-06T00:47:35;7.57;;;5.57;;
67930;SDS011;63902;52.000;5.954;2023-08-06T00:48:37;7.88;;;5.28;;
67930;SDS011;63902;52.000;5.954;2023-08-06T00:49:38;8.00;;;5.53;;
67930;SDS011;63902;52.000;5.954;2023-08-06T00:50:39;8.57;;;5.50;;
67930;SDS011;63902;52.000;5.954;2023-08-06T00:51:39;8.27;;;5.20;;
67930;SDS011;63902;52.000;5.954;2023-08-06T00:52:40;11.45;;;5.63;;
67930;SDS011;63902;52.000;5.954;2023-08-06T00:53:41;6.85;;;5.35;;
67930;SDS011;63902;52.000;5.954;2023-08-06T00:54:42;8.25;;;5.70;;
67930;SDS011;63902;52.000;5.954;2023-08-06T00:55:43;8.45;;;5.72;;
67930;SDS011;63902;52.000;5.954;2023-08-06T00:56:44;11.50;;;6.15;;
67930;SDS011;63902;52.000;5.954;2023-08-06T00:57:46;12.60;;;6.68;;
67930;SDS011;63902;52.000;5.954;2023-08-06T00:58:47;7.57;;;5.75;;
67930;SDS011;63902;52.000;5.954;2023-08-06T00:59:49;9.88;;;6.05;;
67930;SDS011;63902;52.000;5.954;2023-08-06T01:00:49;6.95;;;5.70;;
67930;SDS011;63902;52.000;5.954;2023-08-06T01:01:50;9.77;;;6.15;;
67930;SDS011;63902;52.000;5.954;2023-08-06T01:02:51;10.32;;;5.35;;
67930;SDS011;63902;52.000;5.954;2023-08-06T01:03:53;17.83;;;5.78;;
67930;SDS011;63902;52.000;5.954;2023-08-06T01:04:54;9.30;;;5.80;;
67930;SDS011;63902;52.000;5.954;2023-08-06T01:05:55;7.90;;;5.85;;
67930;SDS011;63902;52.000;5.954;2023-08-06T01:06:59;10.35;;;5.80;;
67930;SDS011;63902;52.000;5.954;2023-08-06T01:08:12;7.82;;;5.93;;
67930;SDS011;63902;52.000;5.954;2023-08-06T01:09:25;8.13;;;5.75;;
67930;SDS011;63902;52.000;5.954;2023-08-06T01:10:39;9.18;;;6.57;;
67930;SDS011;63902;52.000;5.954;2023-08-06T01:12:55;9.43;;;6.07;;
67930;SDS011;63902;52.000;5.954;2023-08-06T01:14:02;9.07;;;5.85;;
67930;SDS011;63902;52.000;5.954;2023-08-06T01:15:15;8.13;;;5.32;;
67930;SDS011;63902;52.000;5.954;2023-08-06T01:16:20;8.65;;;6.00;;
67930;SDS011;63902;52.000;5.954;2023-08-06T01:17:21;13.93;;;6.35;;
67930;SDS011;63902;52.000;5.954;2023-08-06T01:18:23;10.90;;;6.32;;
67930;SDS011;63902;52.000;5.954;2023-08-06T01:19:25;10.88;;;6.65;;
67930;SDS011;63902;52.000;5.954;2023-08-06T01:20:28;7.60;;;5.35;;
67930;SDS011;63902;52.000;5.954;2023-08-06T01:21:29;8.18;;;6.15;;
67930;SDS011;63902;52.000;5.954;2023-08-06T01:22:30;9.52;;;6.18;;
67930;SDS011;63902;52.000;5.954;2023-08-06T01:23:30;10.20;;;6.40;;
67930;SDS011;63902;52.000;5.954;2023-08-06T01:24:31;9.88;;;6.18;;
67930;SDS011;63902;52.000;5.954;2023-08-06T01:25:33;11.85;;;6.30;;
67930;SDS011;63902;52.000;5.954;2023-08-06T01:26:36;9.77;;;6.80;;
67930;SDS011;63902;52.000;5.954;2023-08-06T01:27:44;7.55;;;6.07;;
67930;SDS011;63902;52.000;5.954;2023-08-06T01:28:48;9.43;;;6.55;;
67930;SDS011;63902;52.000;5.954;2023-08-06T01:29:57;8.73;;;6.28;;
67930;SDS011;63902;52.000;5.954;2023-08-06T01:31:02;9.27;;;6.10;;
67930;SDS011;63902;52.000;5.954;2023-08-06T01:32:07;9.40;;;5.80;;
67930;SDS011;63902;52.000;5.954;2023-08-06T01:33:12;7.85;;;6.07;;
67930;SDS011;63902;52.000;5.954;2023-08-06T01:34:17;10.90;;;6.20;;
67930;SDS011;63902;52.000;5.954;2023-08-06T01:35:18;8.82;;;6.55;;
67930;SDS011;63902;52.000;5.954;2023-08-06T01:36:20;10.30;;;6.38;;
67930;SDS011;63902;52.000;5.954;2023-08-06T01:37:22;13.00;;;6.78;;
67930;SDS011;63902;52.000;5.954;2023-08-06T01:38:23;9.23;;;7.15;;
67930;SDS011;63902;52.000;5.954;2023-08-06T01:39:25;10.02;;;6.45;;
67930;SDS011;63902;52.000;5.954;2023-08-06T01:40:25;10.30;;;6.97;;
67930;SDS011;63902;52.000;5.954;2023-08-06T01:41:26;8.77;;;6.85;;
67930;SDS011;63902;52.000;5.954;2023-08-06T01:42:26;10.65;;;7.22;;
67930;SDS011;63902;52.000;5.954;2023-08-06T01:43:27;8.88;;;6.63;;
67930;SDS011;63902;52.000;5.954;2023-08-06T01:44:27;9.77;;;6.85;;
67930;SDS011;63902;52.000;5.954;2023-08-06T01:45:28;9.85;;;7.03;;
67930;SDS011;63902;52.000;5.954;2023-08-06T01:46:28;11.13;;;7.50;;
67930;SDS011;63902;52.000;5.954;2023-08-06T01:47:29;9.88;;;7.25;;
67930;SDS011;63902;52.000;5.954;2023-08-06T01:48:29;10.43;;;7.38;;
67930;SDS011;63902;52.000;5.954;2023-08-06T01:49:30;11.18;;;6.47;;
67930;SDS011;63902;52.000;5.954;2023-08-06T01:50:30;9.00;;;6.93;;
67930;SDS011;63902;52.000;5.954;2023-08-06T01:51:32;11.98;;;7.63;;
67930;SDS011;63902;52.000;5.954;2023-08-06T01:52:33;9.63;;;7.07;;
67930;SDS011;63902;52.000;5.954;2023-08-06T01:53:33;9.55;;;7.40;;
67930;SDS011;63902;52.000;5.954;2023-08-06T01:54:34;8.82;;;7.05;;
67930;SDS011;63902;52.000;5.954;2023-08-06T01:55:34;11.38;;;7.40;;
67930;SDS011;63902;52.000;5.954;2023-08-06T01:56:35;11.15;;;7.55;;
67930;SDS011;63902;52.000;5.954;2023-08-06T01:57:35;10.07;;;7.32;;
67930;SDS011;63902;52.000;5.954;2023-08-06T01:58:36;13.90;;;7.63;;
67930;SDS011;63902;52.000;5.954;2023-08-06T01:59:37;9.57;;;7.25;;
67930;SDS011;63902;52.000;5.954;2023-08-06T02:00:37;10.55;;;7.55;;
67930;SDS011;63902;52.000;5.954;2023-08-06T02:01:38;12.10;;;7.43;;
67930;SDS011;63902;52.000;5.954;2023-08-06T02:02:38;10.60;;;7.63;;
67930;SDS011;63902;52.000;5.954;2023-08-06T02:03:39;11.27;;;7.93;;
67930;SDS011;63902;52.000;5.954;2023-08-06T02:04:39;9.57;;;7.20;;
67930;SDS011;63902;52.000;5.954;2023-08-06T02:05:39;15.13;;;8.07;;
67930;SDS011;63902;52.000;5.954;2023-08-06T02:06:41;11.18;;;8.18;;
67930;SDS011;63902;52.000;5.954;2023-08-06T02:07:42;11.45;;;7.70;;
67930;SDS011;63902;52.000;5.954;2023-08-06T02:08:42;13.85;;;8.52;;
67930;SDS011;63902;52.000;5.954;2023-08-06T02:09:43;12.52;;;7.93;;
67930;SDS011;63902;52.000;5.954;2023-08-06T02:10:44;14.50;;;8.10;;
67930;SDS011;63902;52.000;5.954;2023-08-06T02:11:44;11.10;;;8.40;;
67930;SDS011;63902;52.000;5.954;2023-08-06T02:12:45;15.05;;;8.45;;
67930;SDS011;63902;52.000;5.954;2023-08-06T02:13:45;12.70;;;8.68;;
67930;SDS011;63902;52.000;5.954;2023-08-06T02:14:46;14.32;;;8.93;;
67930;SDS011;63902;52.000;5.954;2023-08-06T02:15:46;11.30;;;7.97;;
67930;SDS011;63902;52.000;5.954;2023-08-06T02:16:47;17.58;;;7.97;;
67930;SDS011;63902;52.000;5.954;2023-08-06T02:17:47;12.38;;;8.00;;
67930;SDS011;63902;52.000;5.954;2023-08-06T02:18:48;10.90;;;7.68;;
67930;SDS011;63902;52.000;5.954;2023-08-06T02:19:48;10.40;;;8.27;;
67930;SDS011;63902;52.000;5.954;2023-08-06T02:20:54;12.20;;;8.32;;
67930;SDS011;63902;52.000;5.954;2023-08-06T02:21:57;10.48;;;7.47;;
67930;SDS011;63902;52.000;5.954;2023-08-06T02:22:57;13.30;;;8.45;;
67930;SDS011;63902;52.000;5.954;2023-08-06T02:23:58;16.40;;;8.80;;
67930;SDS011;63902;52.000;5.954;2023-08-06T02:24:58;11.27;;;8.38;;
67930;SDS011;63902;52.000;5.954;2023-08-06T02:25:59;11.05;;;7.97;;
67930;SDS011;63902;52.000;5.954;2023-08-06T02:27:00;11.38;;;8.40;;
67930;SDS011;63902;52.000;5.954;2023-08-06T02:28:01;11.43;;;8.50;;
67930;SDS011;63902;52.000;5.954;2023-08-06T02:29:01;12.38;;;7.93;;
67930;SDS011;63902;52.000;5.954;2023-08-06T02:30:02;14.20;;;7.85;;
67930;SDS011;63902;52.000;5.954;2023-08-06T02:31:03;9.20;;;7.40;;
67930;SDS011;63902;52.000;5.954;2023-08-06T02:32:04;14.10;;;8.30;;
67930;SDS011;63902;52.000;5.954;2023-08-06T02:33:06;12.65;;;7.13;;
67930;SDS011;63902;52.000;5.954;2023-08-06T02:34:06;9.70;;;7.28;;
67930;SDS011;63902;52.000;5.954;2023-08-06T02:35:07;8.63;;;7.40;;
67930;SDS011;63902;52.000;5.954;2023-08-06T02:36:07;11.38;;;7.05;;
67930;SDS011;63902;52.000;5.954;2023-08-06T02:37:09;10.90;;;7.30;;
67930;SDS011;63902;52.000;5.954;2023-08-06T02:38:10;9.60;;;6.72;;
67930;SDS011;63902;52.000;5.954;2023-08-06T02:39:10;9.13;;;7.00;;
67930;SDS011;63902;52.000;5.954;2023-08-06T02:40:11;10.20;;;6.40;;
67930;SDS011;63902;52.000;5.954;2023-08-06T02:41:11;13.68;;;7.00;;
67930;SDS011;63902;52.000;5.954;2023-08-06T02:42:12;8.35;;;5.88;;
67930;SDS011;63902;52.000;5.954;2023-08-06T02:43:12;11.55;;;6.22;;
67930;SDS011;63902;52.000;5.954;2023-08-06T02:44:13;7.22;;;5.85;;
67930;SDS011;63902;52.000;5.954;2023-08-06T02:45:14;8.90;;;5.90;;
67930;SDS011;63902;52.000;5.954;2023-08-06T02:46:14;9.05;;;5.90;;
67930;SDS011;63902;52.000;5.954;2023-08-06T02:47:15;8.98;;;5.68;;
67930;SDS011;63902;52.000;5.954;2023-08-06T02:48:15;8.48;;;5.80;;
67930;SDS011;63902;52.000;5.954;2023-08-06T02:49:16;6.95;;;5.07;;
67930;SDS011;63902;52.000;5.954;2023-08-06T02:50:16;6.60;;;5.18;;
67930;SDS011;63902;52.000;5.954;2023-08-06T02:51:17;6.90;;;5.28;;
67930;SDS011;63902;52.000;5.954;2023-08-06T02:52:19;8.00;;;4.90;;
67930;SDS011;63902;52.000;5.954;2023-08-06T02:53:20;6.90;;;4.97;;
67930;SDS011;63902;52.000;5.954;2023-08-06T02:54:20;7.80;;;5.38;;
67930;SDS011;63902;52.000;5.954;2023-08-06T02:55:21;6.38;;;5.10;;
67930;SDS011;63902;52.000;5.954;2023-08-06T02:56:21;8.82;;;4.80;;
67930;SDS011;63902;52.000;5.954;2023-08-06T02:57:22;7.68;;;5.05;;
67930;SDS011;63902;52.000;5.954;2023-08-06T02:58:22;6.45;;;4.80;;
67930;SDS011;63902;52.000;5.954;2023-08-06T02:59:23;7.68;;;4.75;;
67930;SDS011;63902;52.000;5.954;2023-08-06T03:00:23;6.30;;;4.80;;
67930;SDS011;63902;52.000;5.954;2023-08-06T03:01:24;6.95;;;4.63;;
67930;SDS011;63902;52.000;5.954;2023-08-06T03:02:24;13.90;;;4.70;;
67930;SDS011;63902;52.000;5.954;2023-08-06T03:03:25;7.00;;;5.03;;
67930;SDS011;63902;52.000;5.954;2023-08-06T03:04:25;7.85;;;4.93;;
67930;SDS011;63902;52.000;5.954;2023-08-06T03:05:26;6.07;;;4.38;;
67930;SDS011;63902;52.000;5.954;2023-08-06T03:06:26;5.68;;;3.95;;
67930;SDS011;63902;52.000;5.954;2023-08-06T03:07:28;6.32;;;3.85;;
67930;SDS011;63902;52.000;5.954;2023-08-06T03:08:29;5.65;;;4.18;;
67930;SDS011;63902;52.000;5.954;2023-08-06T03:09:29;4.85;;;3.88;;
67930;SDS011;63902;52.000;5.954;2023-08-06T03:10:30;4.80;;;3.58;;
67930;SDS011;63902;52.000;5.954;2023-08-06T03:11:30;6.30;;;3.65;;
67930;SDS011;63902;52.000;5.954;2023-08-06T03:12:31;5.97;;;3.80;;
67930;SDS011;63902;52.000;5.954;2023-08-06T03:13:31;5.72;;;3.88;;
67930;SDS011;63902;52.000;5.954;2023-08-06T03:14:32;4.95;;;3.75;;
67930;SDS011;63902;52.000;5.954;2023-08-06T03:15:32;10.77;;;3.92;;
67930;SDS011;63902;52.000;5.954;2023-08-06T03:16:33;5.03;;;3.75;;
67930;SDS011;63902;52.000;5.954;2023-08-06T03:17:33;8.15;;;4.10;;
67930;SDS011;63902;52.000;5.954;2023-08-06T03:18:33;5.78;;;3.80;;
67930;SDS011;63902;52.000;5.954;2023-08-06T03:19:34;7.93;;;3.58;;
67930;SDS011;63902;52.000;5.954;2023-08-06T03:20:34;6.35;;;3.47;;
67930;SDS011;63902;52.000;5.954;2023-08-06T03:21:35;5.25;;;3.72;;
67930;SDS011;63902;52.000;5.954;2023-08-06T03:22:37;5.70;;;4.10;;
67930;SDS011;63902;52.000;5.954;2023-08-06T03:23:37;5.68;;;3.80;;
67930;SDS011;63902;52.000;5.954;2023-08-06T03:24:38;6.75;;;4.00;;
67930;SDS011;63902;52.000;5.954;2023-08-06T03:25:38;5.03;;;3.35;;
67930;SDS011;63902;52.000;5.954;2023-08-06T03:26:39;4.88;;;3.75;;
67930;SDS011;63902;52.000;5.954;2023-08-06T03:27:39;7.22;;;3.85;;
67930;SDS011;63902;52.000;5.954;2023-08-06T03:28:40;5.65;;;4.00;;
67930;SDS011;63902;52.000;5.954;2023-08-06T03:29:40;6.10;;;4.00;;
67930;SDS011;63902;52.000;5.954;2023-08-06T03:30:41;6.07;;;4.00;;
67930;SDS011;63902;52.000;5.954;2023-08-06T03:31:41;6.57;;;4.22;;
67930;SDS011;63902;52.000;5.954;2023-08-06T03:32:42;6.70;;;3.92;;
67930;SDS011;63902;52.000;5.954;2023-08-06T03:33:42;6.43;;;4.15;;
67930;SDS011;63902;52.000;5.954;2023-08-06T03:34:43;6.50;;;4.45;;
67930;SDS011;63902;52.000;5.954;2023-08-06T03:35:43;8.93;;;4.47;;
67930;SDS011;63902;52.000;5.954;2023-08-06T03:36:44;7.07;;;4.90;;
67930;SDS011;63902;52.000;5.954;2023-08-06T03:37:46;7.97;;;4.43;;
67930;SDS011;63902;52.000;5.954;2023-08-06T03:38:46;6.07;;;4.50;;
67930;SDS011;63902;52.000;5.954;2023-08-06T03:39:47;7.32;;;4.65;;
67930;SDS011;63902;52.000;5.954;2023-08-06T03:40:47;7.72;;;4.40;;
67930;SDS011;63902;52.000;5.954;2023-08-06T03:41:48;5.50;;;4.35;;
67930;SDS011;63902;52.000;5.954;2023-08-06T03:42:48;8.32;;;5.05;;
67930;SDS011;63902;52.000;5.954;2023-08-06T03:43:49;9.93;;;4.55;;
67930;SDS011;63902;52.000;5.954;2023-08-06T03:44:49;11.73;;;4.85;;
67930;SDS011;63902;52.000;5.954;2023-08-06T03:45:50;5.80;;;4.72;;
67930;SDS011;63902;52.000;5.954;2023-08-06T03:46:50;6.93;;;5.00;;
67930;SDS011;63902;52.000;5.954;2023-08-06T03:47:51;12.57;;;5.40;;
67930;SDS011;63902;52.000;5.954;2023-08-06T03:48:51;9.73;;;5.15;;
67930;SDS011;63902;52.000;5.954;2023-08-06T03:49:52;8.45;;;5.07;;
67930;SDS011;63902;52.000;5.954;2023-08-06T03:50:52;6.97;;;4.78;;
67930;SDS011;63902;52.000;5.954;2023-08-06T03:51:52;9.10;;;4.80;;
67930;SDS011;63902;52.000;5.954;2023-08-06T03:52:54;8.93;;;4.78;;
67930;SDS011;63902;52.000;5.954;2023-08-06T03:53:55;7.70;;;4.85;;
67930;SDS011;63902;52.000;5.954;2023-08-06T03:54:55;7.13;;;5.25;;
67930;SDS011;63902;52.000;5.954;2023-08-06T03:55:56;6.20;;;4.75;;
67930;SDS011;63902;52.000;5.954;2023-08-06T03:56:56;9.23;;;4.82;;
67930;SDS011;63902;52.000;5.954;2023-08-06T03:57:57;7.82;;;5.22;;
67930;SDS011;63902;52.000;5.954;2023-08-06T03:58:57;8.80;;;5.30;;
67930;SDS011;63902;52.000;5.954;2023-08-06T03:59:58;7.78;;;4.90;;
67930;SDS011;63902;52.000;5.954;2023-08-06T04:00:59;9.95;;;5.05;;
67930;SDS011;63902;52.000;5.954;2023-08-06T04:02:00;8.82;;;5.63;;
67930;SDS011;63902;52.000;5.954;2023-08-06T04:03:00;8.43;;;5.90;;
67930;SDS011;63902;52.000;5.954;2023-08-06T04:04:01;9.32;;;5.50;;
67930;SDS011;63902;52.000;5.954;2023-08-06T04:05:01;8.50;;;5.20;;
67930;SDS011;63902;52.000;5.954;2023-08-06T04:06:02;11.15;;;5.40;;
67930;SDS011;63902;52.000;5.954;2023-08-06T04:07:03;9.15;;;5.65;;
67930;SDS011;63902;52.000;5.954;2023-08-06T04:08:05;9.40;;;5.82;;
67930;SDS011;63902;52.000;5.954;2023-08-06T04:09:05;9.93;;;6.07;;
67930;SDS011;63902;52.000;5.954;2023-08-06T04:10:06;10.52;;;6.18;;
67930;SDS011;63902;52.000;5.954;2023-08-06T04:11:07;9.35;;;5.43;;
67930;SDS011;63902;52.000;5.954;2023-08-06T04:12:07;10.27;;;6.05;;
67930;SDS011;63902;52.000;5.954;2023-08-06T04:13:08;7.20;;;5.60;;
67930;SDS011;63902;52.000;5.954;2023-08-06T04:14:08;9.90;;;6.25;;
67930;SDS011;63902;52.000;5.954;2023-08-06T04:15:09;9.65;;;6.40;;
67930;SDS011;63902;52.000;5.954;2023-08-06T04:16:10;11.18;;;5.60;;
67930;SDS011;63902;52.000;5.954;2023-08-06T04:17:10;8.30;;;5.93;;
67930;SDS011;63902;52.000;5.954;2023-08-06T04:18:11;9.65;;;5.65;;
67930;SDS011;63902;52.000;5.954;2023-08-06T04:19:11;9.13;;;6.07;;
67930;SDS011;63902;52.000;5.954;2023-08-06T04:20:12;8.68;;;5.93;;
67930;SDS011;63902;52.000;5.954;2023-08-06T04:21:12;8.15;;;5.97;;
67930;SDS011;63902;52.000;5.954;2023-08-06T04:22:13;11.80;;;6.55;;
67930;SDS011;63902;52.000;5.954;2023-08-06T04:23:15;9.70;;;6.10;;
67930;SDS011;63902;52.000;5.954;2023-08-06T04:24:15;10.32;;;6.65;;
67930;SDS011;63902;52.000;5.954;2023-08-06T04:25:16;8.80;;;6.53;;
67930;SDS011;63902;52.000;5.954;2023-08-06T04:26:16;11.05;;;6.57;;
67930;SDS011;63902;52.000;5.954;2023-08-06T04:27:17;10.80;;;6.03;;
67930;SDS011;63902;52.000;5.954;2023-08-06T04:28:19;12.98;;;6.78;;
67930;SDS011;63902;52.000;5.954;2023-08-06T04:29:19;12.48;;;7.07;;
67930;SDS011;63902;52.000;5.954;2023-08-06T04:30:20;9.05;;;6.40;;
67930;SDS011;63902;52.000;5.954;2023-08-06T04:31:20;10.90;;;6.95;;
67930;SDS011;63902;52.000;5.954;2023-08-06T04:32:21;9.93;;;6.57;;
67930;SDS011;63902;52.000;5.954;2023-08-06T04:33:21;14.63;;;7.35;;
67930;SDS011;63902;52.000;5.954;2023-08-06T04:34:22;8.60;;;6.28;;
67930;SDS011;63902;52.000;5.954;2023-08-06T04:35:22;8.70;;;6.45;;
67930;SDS011;63902;52.000;5.954;2023-08-06T04:36:23;8.20;;;6.40;;
67930;SDS011;63902;52.000;5.954;2023-08-06T04:37:23;11.35;;;7.25;;
67930;SDS011;63902;52.000;5.954;2023-08-06T04:38:25;10.95;;;6.65;;
67930;SDS011;63902;52.000;5.954;2023-08-06T04:39:26;9.10;;;6.70;;
67930;SDS011;63902;52.000;5.954;2023-08-06T04:40:27;11.00;;;7.18;;
67930;SDS011;63902;52.000;5.954;2023-08-06T04:41:27;9.45;;;6.80;;
67930;SDS011;63902;52.000;5.954;2023-08-06T04:42:28;12.30;;;7.05;;
67930;SDS011;63902;52.000;5.954;2023-08-06T04:43:28;13.38;;;6.65;;
67930;SDS011;63902;52.000;5.954;2023-08-06T04:44:29;9.20;;;6.40;;
67930;SDS011;63902;52.000;5.954;2023-08-06T04:45:29;12.20;;;6.88;;
67930;SDS011;63902;52.000;5.954;2023-08-06T04:46:30;11.50;;;7.05;;
67930;SDS011;63902;52.000;5.954;2023-08-06T04:47:31;12.20;;;6.28;;
67930;SDS011;63902;52.000;5.954;2023-08-06T04:48:31;13.43;;;6.85;;
67930;SDS011;63902;52.000;5.954;2023-08-06T04:49:32;13.23;;;7.25;;
67930;SDS011;63902;52.000;5.954;2023-08-06T04:50:32;9.65;;;6.38;;
67930;SDS011;63902;52.000;5.954;2023-08-06T04:51:33;13.18;;;6.85;;
67930;SDS011;63902;52.000;5.954;2023-08-06T04:52:33;11.95;;;6.60;;
67930;SDS011;63902;52.000;5.954;2023-08-06T04:53:35;12.93;;;6.90;;
67930;SDS011;63902;52.000;5.954;2023-08-06T04:54:35;10.88;;;6.53;;
67930;SDS011;63902;52.000;5.954;2023-08-06T04:55:36;12.10;;;6.95;;
67930;SDS011;63902;52.000;5.954;2023-08-06T04:56:36;8.98;;;7.07;;
67930;SDS011;63902;52.000;5.954;2023-08-06T04:57:37;8.93;;;6.80;;
67930;SDS011;63902;52.000;5.954;2023-08-06T04:58:37;9.68;;;6.88;;
67930;SDS011;63902;52.000;5.954;2023-08-06T04:59:38;10.32;;;6.50;;
67930;SDS011;63902;52.000;5.954;2023-08-06T05:00:39;12.93;;;6.97;;
67930;SDS011;63902;52.000;5.954;2023-08-06T05:01:40;12.45;;;6.35;;
67930;SDS011;63902;52.000;5.954;2023-08-06T05:02:40;10.98;;;7.57;;
67930;SDS011;63902;52.000;5.954;2023-08-06T05:03:41;10.02;;;6.93;;
67930;SDS011;63902;52.000;5.954;2023-08-06T05:04:41;10.82;;;7.07;;
67930;SDS011;63902;52.000;5.954;2023-08-06T05:05:42;11.38;;;6.80;;
67930;SDS011;63902;52.000;5.954;2023-08-06T05:06:42;11.43;;;7.47;;
67930;SDS011;63902;52.000;5.954;2023-08-06T05:07:43;9.13;;;6.90;;
67930;SDS011;63902;52.000;5.954;2023-08-06T05:08:46;8.98;;;6.35;;
67930;SDS011;63902;52.000;5.954;2023-08-06T05:09:47;13.85;;;7.53;;
67930;SDS011;63902;52.000;5.954;2023-08-06T05:10:47;9.23;;;6.88;;
67930;SDS011;63902;52.000;5.954;2023-08-06T05:11:48;10.43;;;7.55;;
67930;SDS011;63902;52.000;5.954;2023-08-06T05:12:49;13.23;;;6.90;;
67930;SDS011;63902;52.000;5.954;2023-08-06T05:13:50;10.65;;;7.45;;
67930;SDS011;63902;52.000;5.954;2023-08-06T05:14:50;10.82;;;7.00;;
67930;SDS011;63902;52.000;5.954;2023-08-06T05:15:51;10.15;;;7.18;;
67930;SDS011;63902;52.000;5.954;2023-08-06T05:16:53;16.17;;;8.52;;
67930;SDS011;63902;52.000;5.954;2023-08-06T05:17:53;10.77;;;7.18;;
67930;SDS011;63902;52.000;5.954;2023-08-06T05:18:54;12.75;;;8.20;;
67930;SDS011;63902;52.000;5.954;2023-08-06T05:19:54;11.50;;;8.15;;
67930;SDS011;63902;52.000;5.954;2023-08-06T05:20:55;13.90;;;7.65;;
67930;SDS011;63902;52.000;5.954;2023-08-06T05:21:55;12.70;;;8.15;;
67930;SDS011;63902;52.000;5.954;2023-08-06T05:22:56;12.40;;;8.63;;
67930;SDS011;63902;52.000;5.954;2023-08-06T05:23:58;12.10;;;8.25;;
67930;SDS011;63902;52.000;5.954;2023-08-06T05:24:58;10.88;;;8.38;;
67930;SDS011;63902;52.000;5.954;2023-08-06T05:25:59;13.77;;;8.82;;
67930;SDS011;63902;52.000;5.954;2023-08-06T05:26:59;10.40;;;8.18;;
67930;SDS011;63902;52.000;5.954;2023-08-06T05:27:59;15.95;;;9.15;;
67930;SDS011;63902;52.000;5.954;2023-08-06T05:29:00;13.32;;;9.27;;
67930;SDS011;63902;52.000;5.954;2023-08-06T05:30:01;16.25;;;9.68;;
67930;SDS011;63902;52.000;5.954;2023-08-06T05:31:03;16.13;;;10.13;;
67930;SDS011;63902;52.000;5.954;2023-08-06T05:32:04;19.05;;;9.88;;
67930;SDS011;63902;52.000;5.954;2023-08-06T05:33:04;14.90;;;9.73;;
67930;SDS011;63902;52.000;5.954;2023-08-06T05:34:05;15.15;;;10.07;;
67930;SDS011;63902;52.000;5.954;2023-08-06T05:35:06;15.98;;;10.40;;
67930;SDS011;63902;52.000;5.954;2023-08-06T05:36:07;15.63;;;10.60;;
67930;SDS011;63902;52.000;5.954;2023-08-06T05:37:07;18.00;;;10.73;;
67930;SDS011;63902;52.000;5.954;2023-08-06T05:38:08;12.48;;;9.85;;
67930;SDS011;63902;52.000;5.954;2023-08-06T05:39:09;20.42;;;10.90;;
67930;SDS011;63902;52.000;5.954;2023-08-06T05:40:10;14.20;;;10.10;;
67930;SDS011;63902;52.000;5.954;2023-08-06T05:41:11;16.13;;;10.80;;
67930;SDS011;63902;52.000;5.954;2023-08-06T05:42:11;15.35;;;11.10;;
67930;SDS011;63902;52.000;5.954;2023-08-06T05:43:12;16.92;;;10.55;;
67930;SDS011;63902;52.000;5.954;2023-08-06T05:44:12;16.65;;;10.48;;
67930;SDS011;63902;52.000;5.954;2023-08-06T05:45:13;15.98;;;10.98;;
67930;SDS011;63902;52.000;5.954;2023-08-06T05:46:13;16.40;;;10.43;;
67930;SDS011;63902;52.000;5.954;2023-08-06T05:47:14;18.48;;;11.30;;
67930;SDS011;63902;52.000;5.954;2023-08-06T05:48:14;19.10;;;11.43;;
67930;SDS011;63902;52.000;5.954;2023-08-06T05:49:15;17.73;;;11.60;;
67930;SDS011;63902;52.000;5.954;2023-08-06T05:50:16;19.35;;;11.30;;
67930;SDS011;63902;52.000;5.954;2023-08-06T05:51:16;15.68;;;11.07;;
67930;SDS011;63902;52.000;5.954;2023-08-06T05:52:17;16.45;;;11.30;;
67930;SDS011;63902;52.000;5.954;2023-08-06T05:53:17;16.73;;;11.25;;
67930;SDS011;63902;52.000;5.954;2023-08-06T05:54:19;16.45;;;11.00;;
67930;SDS011;63902;52.000;5.954;2023-08-06T05:55:20;20.55;;;11.25;;
67930;SDS011;63902;52.000;5.954;2023-08-06T05:56:20;20.92;;;11.98;;
67930;SDS011;63902;52.000;5.954;2023-08-06T05:57:21;14.90;;;10.50;;
67930;SDS011;63902;52.000;5.954;2023-08-06T05:58:21;14.43;;;10.65;;
67930;SDS011;63902;52.000;5.954;2023-08-06T05:59:22;16.73;;;11.52;;
67930;SDS011;63902;52.000;5.954;2023-08-06T06:00:22;15.77;;;11.70;;
67930;SDS011;63902;52.000;5.954;2023-08-06T06:01:23;15.05;;;11.02;;
67930;SDS011;63902;52.000;5.954;2023-08-06T06:02:23;15.68;;;11.50;;
67930;SDS011;63902;52.000;5.954;2023-08-06T06:03:24;17.92;;;10.63;;
67930;SDS011;63902;52.000;5.954;2023-08-06T06:04:24;15.93;;;10.95;;
67930;SDS011;63902;52.000;5.954;2023-08-06T06:05:25;15.98;;;10.38;;
67930;SDS011;63902;52.000;5.954;2023-08-06T06:06:25;19.23;;;11.48;;